sensor_id;sensor_type;location;lat;lon;timestamp;P1;durP1;ratioP1;P2;durP2;ratioP2
17917;SDS011;9084;50.956;3.106;2022-11-14T00:00:42;34.83;;;31.13;;
17917;SDS011;9084;50.956;3.106;2022-11-14T00:03:09;33.13;;;29.80;;
17917;SDS011;9084;50.956;3.106;2022-11-14T00:05:40;34.37;;;30.67;;
17917;SDS011;9084;50.956;3.106;2022-11-14T00:08:16;38.60;;;30.80;;
17917;SDS011;9084;50.956;3.106;2022-11-14T00:10:47;34.30;;;30.53;;
17917;SDS011;9084;50.956;3.106;2022-11-14T00:13:17;33.90;;;30.50;;
17917;SDS011;9084;50.956;3.106;2022-11-14T00:15:44;32.07;;;28.67;;
17917;SDS011;9084;50.956;3.106;2022-11-14T00:18:11;31.43;;;28.33;;
17917;SDS011;9084;50.956;3.106;2022-11-14T00:20:40;32.67;;;29.67;;
17917;SDS011;9084;50.956;3.106;2022-11-14T00:23:06;33.20;;;29.90;;
17917;SDS011;9084;50.956;3.106;2022-11-14T00:25:31;33.47;;;29.90;;
17917;SDS011;9084;50.956;3.106;2022-11-14T00:27:58;35.13;;;30.60;;
17917;SDS011;9084;50.956;3.106;2022-11-14T00:30:26;36.10;;;32.23;;
17917;SDS011;9084;50.956;3.106;2022-11-14T00:32:52;35.17;;;31.50;;
17917;SDS011;9084;50.956;3.106;2022-11-14T00:35:18;36.93;;;32.00;;
17917;SDS011;9084;50.956;3.106;2022-11-14T00:37:48;34.20;;;30.47;;
17917;SDS011;9084;50.956;3.106;2022-11-14T00:40:14;33.63;;;30.10;;
17917;SDS011;9084;50.956;3.106;2022-11-14T00:42:40;34.43;;;30.87;;
17917;SDS011;9084;50.956;3.106;2022-11-14T00:45:08;33.50;;;30.10;;
17917;SDS011;9084;50.956;3.106;2022-11-14T00:47:35;34.73;;;31.03;;
17917;SDS011;9084;50.956;3.106;2022-11-14T00:50:01;32.90;;;29.57;;
17917;SDS011;9084;50.956;3.106;2022-11-14T00:52:30;33.30;;;30.03;;
17917;SDS011;9084;50.956;3.106;2022-11-14T00:54:56;31.63;;;28.37;;
17917;SDS011;9084;50.956;3.106;2022-11-14T00:57:22;31.93;;;28.60;;
17917;SDS011;9084;50.956;3.106;2022-11-14T00:59:48;32.73;;;29.47;;
17917;SDS011;9084;50.956;3.106;2022-11-14T01:02:19;32.07;;;28.93;;
17917;SDS011;9084;50.956;3.106;2022-11-14T01:04:48;31.43;;;28.40;;
17917;SDS011;9084;50.956;3.106;2022-11-14T01:07:16;31.37;;;28.20;;
17917;SDS011;9084;50.956;3.106;2022-11-14T01:09:44;30.73;;;27.83;;
17917;SDS011;9084;50.956;3.106;2022-11-14T01:12:10;31.20;;;27.97;;
17917;SDS011;9084;50.956;3.106;2022-11-14T01:14:36;30.27;;;27.37;;
17917;SDS011;9084;50.956;3.106;2022-11-14T01:17:08;31.20;;;28.20;;
17917;SDS011;9084;50.956;3.106;2022-11-14T01:19:34;28.80;;;26.23;;
17917;SDS011;9084;50.956;3.106;2022-11-14T01:22:00;30.37;;;27.47;;
17917;SDS011;9084;50.956;3.106;2022-11-14T01:24:28;28.87;;;26.17;;
17917;SDS011;9084;50.956;3.106;2022-11-14T01:26:58;28.93;;;26.20;;
17917;SDS011;9084;50.956;3.106;2022-11-14T01:29:24;29.10;;;26.33;;
17917;SDS011;9084;50.956;3.106;2022-11-14T01:31:55;29.13;;;26.27;;
17917;SDS011;9084;50.956;3.106;2022-11-14T01:34:26;27.50;;;24.97;;
17917;SDS011;9084;50.956;3.106;2022-11-14T01:37:11;28.50;;;25.90;;
17917;SDS011;9084;50.956;3.106;2022-11-14T01:39:38;26.17;;;23.80;;
17917;SDS011;9084;50.956;3.106;2022-11-14T01:42:03;27.77;;;25.27;;
17917;SDS011;9084;50.956;3.106;2022-11-14T01:44:48;27.63;;;25.03;;
17917;SDS011;9084;50.956;3.106;2022-11-14T01:47:20;29.00;;;26.17;;
17917;SDS011;9084;50.956;3.106;2022-11-14T01:49:57;28.30;;;25.37;;
17917;SDS011;9084;50.956;3.106;2022-11-14T01:52:30;30.83;;;27.77;;
17917;SDS011;9084;50.956;3.106;2022-11-14T01:55:01;28.10;;;25.20;;
17917;SDS011;9084;50.956;3.106;2022-11-14T01:57:32;31.03;;;27.00;;
17917;SDS011;9084;50.956;3.106;2022-11-14T02:00:07;30.97;;;26.17;;
17917;SDS011;9084;50.956;3.106;2022-11-14T02:02:37;32.53;;;28.00;;
17917;SDS011;9084;50.956;3.106;2022-11-14T02:05:08;30.03;;;26.83;;
17917;SDS011;9084;50.956;3.106;2022-11-14T02:07:38;31.97;;;28.77;;
17917;SDS011;9084;50.956;3.106;2022-11-14T02:10:07;28.73;;;25.83;;
17917;SDS011;9084;50.956;3.106;2022-11-14T02:12:37;30.07;;;26.93;;
17917;SDS011;9084;50.956;3.106;2022-11-14T02:15:03;30.60;;;27.30;;
17917;SDS011;9084;50.956;3.106;2022-11-14T02:17:29;30.03;;;27.03;;
17917;SDS011;9084;50.956;3.106;2022-11-14T02:22:24;27.40;;;24.60;;
17917;SDS011;9084;50.956;3.106;2022-11-14T02:24:50;25.83;;;23.20;;
17917;SDS011;9084;50.956;3.106;2022-11-14T02:27:16;25.10;;;22.50;;
17917;SDS011;9084;50.956;3.106;2022-11-14T02:29:45;21.83;;;19.50;;
17917;SDS011;9084;50.956;3.106;2022-11-14T02:32:11;17.40;;;15.80;;
17917;SDS011;9084;50.956;3.106;2022-11-14T02:34:37;14.10;;;12.73;;
17917;SDS011;9084;50.956;3.106;2022-11-14T02:37:03;13.27;;;12.07;;
17917;SDS011;9084;50.956;3.106;2022-11-14T02:39:31;14.10;;;12.70;;
17917;SDS011;9084;50.956;3.106;2022-11-14T02:41:59;12.27;;;11.17;;
17917;SDS011;9084;50.956;3.106;2022-11-14T02:44:25;13.83;;;12.53;;
17917;SDS011;9084;50.956;3.106;2022-11-14T02:46:51;13.47;;;12.27;;
17917;SDS011;9084;50.956;3.106;2022-11-14T02:49:19;13.23;;;11.87;;
17917;SDS011;9084;50.956;3.106;2022-11-14T02:51:45;11.53;;;10.63;;
17917;SDS011;9084;50.956;3.106;2022-11-14T02:54:11;12.93;;;11.83;;
17917;SDS011;9084;50.956;3.106;2022-11-14T02:56:39;13.03;;;11.93;;
17917;SDS011;9084;50.956;3.106;2022-11-14T02:59:05;13.00;;;11.90;;
17917;SDS011;9084;50.956;3.106;2022-11-14T03:01:31;12.80;;;11.67;;
17917;SDS011;9084;50.956;3.106;2022-11-14T03:04:02;13.20;;;12.00;;
17917;SDS011;9084;50.956;3.106;2022-11-14T03:06:28;14.43;;;12.93;;
17917;SDS011;9084;50.956;3.106;2022-11-14T03:08:56;17.10;;;14.23;;
17917;SDS011;9084;50.956;3.106;2022-11-14T03:11:24;15.30;;;13.30;;
17917;SDS011;9084;50.956;3.106;2022-11-14T03:13:50;18.13;;;13.60;;
17917;SDS011;9084;50.956;3.106;2022-11-14T03:16:19;17.93;;;13.30;;
17917;SDS011;9084;50.956;3.106;2022-11-14T03:18:46;14.23;;;12.73;;
17917;SDS011;9084;50.956;3.106;2022-11-14T03:21:16;13.80;;;12.37;;
17917;SDS011;9084;50.956;3.106;2022-11-14T03:23:43;17.93;;;13.50;;
17917;SDS011;9084;50.956;3.106;2022-11-14T03:26:09;16.47;;;14.07;;
17917;SDS011;9084;50.956;3.106;2022-11-14T03:28:39;23.43;;;15.07;;
17917;SDS011;9084;50.956;3.106;2022-11-14T03:31:05;20.43;;;17.93;;
17917;SDS011;9084;50.956;3.106;2022-11-14T03:33:35;22.00;;;19.50;;
17917;SDS011;9084;50.956;3.106;2022-11-14T03:36:01;22.00;;;18.60;;
17917;SDS011;9084;50.956;3.106;2022-11-14T03:38:30;20.17;;;16.90;;
17917;SDS011;9084;50.956;3.106;2022-11-14T03:40:59;21.47;;;19.13;;
17917;SDS011;9084;50.956;3.106;2022-11-14T03:43:28;20.47;;;18.10;;
17917;SDS011;9084;50.956;3.106;2022-11-14T03:45:56;19.70;;;17.67;;
17917;SDS011;9084;50.956;3.106;2022-11-14T03:48:26;21.63;;;18.20;;
17917;SDS011;9084;50.956;3.106;2022-11-14T03:50:58;20.60;;;17.97;;
17917;SDS011;9084;50.956;3.106;2022-11-14T03:53:24;22.60;;;19.07;;
17917;SDS011;9084;50.956;3.106;2022-11-14T03:55:50;20.83;;;17.87;;
17917;SDS011;9084;50.956;3.106;2022-11-14T03:58:17;25.13;;;18.40;;
17917;SDS011;9084;50.956;3.106;2022-11-14T04:00:43;23.63;;;17.87;;
17917;SDS011;9084;50.956;3.106;2022-11-14T04:03:09;22.67;;;17.80;;
17917;SDS011;9084;50.956;3.106;2022-11-14T04:05:37;27.60;;;19.30;;
17917;SDS011;9084;50.956;3.106;2022-11-14T04:08:04;27.10;;;19.87;;
17917;SDS011;9084;50.956;3.106;2022-11-14T04:10:30;27.87;;;19.63;;
17917;SDS011;9084;50.956;3.106;2022-11-14T04:13:02;27.60;;;20.40;;
17917;SDS011;9084;50.956;3.106;2022-11-14T04:15:31;28.20;;;21.77;;
17917;SDS011;9084;50.956;3.106;2022-11-14T04:17:59;28.20;;;20.50;;
17917;SDS011;9084;50.956;3.106;2022-11-14T04:20:27;27.63;;;20.27;;
17917;SDS011;9084;50.956;3.106;2022-11-14T04:22:55;26.10;;;19.20;;
17917;SDS011;9084;50.956;3.106;2022-11-14T04:25:23;31.23;;;21.03;;
17917;SDS011;9084;50.956;3.106;2022-11-14T04:27:49;22.47;;;19.47;;
17917;SDS011;9084;50.956;3.106;2022-11-14T04:30:15;24.80;;;19.60;;
17917;SDS011;9084;50.956;3.106;2022-11-14T04:32:43;28.50;;;20.43;;
17917;SDS011;9084;50.956;3.106;2022-11-14T04:35:10;27.93;;;20.17;;
17917;SDS011;9084;50.956;3.106;2022-11-14T04:37:38;27.73;;;22.63;;
17917;SDS011;9084;50.956;3.106;2022-11-14T04:40:04;26.30;;;20.27;;
17917;SDS011;9084;50.956;3.106;2022-11-14T04:42:33;26.70;;;19.00;;
17917;SDS011;9084;50.956;3.106;2022-11-14T04:45:02;23.87;;;18.87;;
17917;SDS011;9084;50.956;3.106;2022-11-14T04:47:28;24.77;;;19.20;;
17917;SDS011;9084;50.956;3.106;2022-11-14T04:49:57;23.03;;;19.87;;
17917;SDS011;9084;50.956;3.106;2022-11-14T04:52:22;22.43;;;18.70;;
17917;SDS011;9084;50.956;3.106;2022-11-14T04:54:48;23.23;;;17.87;;
17917;SDS011;9084;50.956;3.106;2022-11-14T04:57:14;22.27;;;17.90;;
17917;SDS011;9084;50.956;3.106;2022-11-14T04:59:44;23.10;;;18.50;;
17917;SDS011;9084;50.956;3.106;2022-11-14T05:02:09;20.73;;;18.73;;
17917;SDS011;9084;50.956;3.106;2022-11-14T05:04:35;16.90;;;15.10;;
17917;SDS011;9084;50.956;3.106;2022-11-14T05:07:01;17.63;;;15.87;;
17917;SDS011;9084;50.956;3.106;2022-11-14T05:09:29;16.77;;;15.27;;
17917;SDS011;9084;50.956;3.106;2022-11-14T05:11:59;22.00;;;20.10;;
17917;SDS011;9084;50.956;3.106;2022-11-14T05:14:27;17.27;;;15.70;;
17917;SDS011;9084;50.956;3.106;2022-11-14T05:16:52;17.90;;;16.33;;
17917;SDS011;9084;50.956;3.106;2022-11-14T05:19:18;14.40;;;13.10;;
17917;SDS011;9084;50.956;3.106;2022-11-14T05:21:44;14.70;;;13.00;;
17917;SDS011;9084;50.956;3.106;2022-11-14T05:24:09;13.97;;;12.63;;
17917;SDS011;9084;50.956;3.106;2022-11-14T05:26:35;14.00;;;12.67;;
17917;SDS011;9084;50.956;3.106;2022-11-14T05:29:01;14.13;;;12.73;;
17917;SDS011;9084;50.956;3.106;2022-11-14T05:31:30;13.63;;;12.23;;
17917;SDS011;9084;50.956;3.106;2022-11-14T05:33:58;12.53;;;11.33;;
17917;SDS011;9084;50.956;3.106;2022-11-14T05:36:27;12.97;;;11.67;;
17917;SDS011;9084;50.956;3.106;2022-11-14T05:38:53;13.20;;;12.00;;
17917;SDS011;9084;50.956;3.106;2022-11-14T05:41:21;12.80;;;11.50;;
17917;SDS011;9084;50.956;3.106;2022-11-14T05:43:47;14.20;;;12.77;;
17917;SDS011;9084;50.956;3.106;2022-11-14T05:46:13;14.43;;;13.20;;
17917;SDS011;9084;50.956;3.106;2022-11-14T05:48:40;14.40;;;13.10;;
17917;SDS011;9084;50.956;3.106;2022-11-14T05:51:10;15.17;;;13.67;;
17917;SDS011;9084;50.956;3.106;2022-11-14T05:53:37;14.43;;;13.13;;
17917;SDS011;9084;50.956;3.106;2022-11-14T05:56:05;14.03;;;12.73;;
17917;SDS011;9084;50.956;3.106;2022-11-14T05:58:33;12.83;;;11.53;;
17917;SDS011;9084;50.956;3.106;2022-11-14T06:01:01;12.50;;;11.33;;
17917;SDS011;9084;50.956;3.106;2022-11-14T06:03:32;14.93;;;13.43;;
17917;SDS011;9084;50.956;3.106;2022-11-14T06:06:02;15.40;;;14.00;;
17917;SDS011;9084;50.956;3.106;2022-11-14T06:08:30;15.47;;;14.07;;
17917;SDS011;9084;50.956;3.106;2022-11-14T06:10:58;14.63;;;13.33;;
17917;SDS011;9084;50.956;3.106;2022-11-14T06:13:30;15.07;;;13.67;;
17917;SDS011;9084;50.956;3.106;2022-11-14T06:16:00;14.70;;;13.40;;
17917;SDS011;9084;50.956;3.106;2022-11-14T06:18:28;14.10;;;12.70;;
17917;SDS011;9084;50.956;3.106;2022-11-14T06:21:13;14.20;;;12.80;;
17917;SDS011;9084;50.956;3.106;2022-11-14T06:23:40;15.37;;;13.83;;
17917;SDS011;9084;50.956;3.106;2022-11-14T06:28:44;14.93;;;13.43;;
17917;SDS011;9084;50.956;3.106;2022-11-14T06:31:09;13.97;;;12.63;;
17917;SDS011;9084;50.956;3.106;2022-11-14T06:33:38;13.57;;;12.30;;
17917;SDS011;9084;50.956;3.106;2022-11-14T06:36:04;13.77;;;12.37;;
17917;SDS011;9084;50.956;3.106;2022-11-14T06:38:34;13.80;;;12.40;;
17917;SDS011;9084;50.956;3.106;2022-11-14T06:41:05;14.17;;;12.77;;
17917;SDS011;9084;50.956;3.106;2022-11-14T06:43:32;15.43;;;13.93;;
17917;SDS011;9084;50.956;3.106;2022-11-14T06:45:58;16.50;;;13.83;;
17917;SDS011;9084;50.956;3.106;2022-11-14T06:48:29;18.97;;;14.53;;
17917;SDS011;9084;50.956;3.106;2022-11-14T06:50:58;17.13;;;13.60;;
17917;SDS011;9084;50.956;3.106;2022-11-14T06:53:28;16.20;;;12.77;;
17917;SDS011;9084;50.956;3.106;2022-11-14T06:56:06;14.77;;;12.97;;
17917;SDS011;9084;50.956;3.106;2022-11-14T06:58:34;15.33;;;13.60;;
17917;SDS011;9084;50.956;3.106;2022-11-14T07:01:06;18.37;;;15.40;;
17917;SDS011;9084;50.956;3.106;2022-11-14T07:03:37;16.30;;;14.60;;
17917;SDS011;9084;50.956;3.106;2022-11-14T07:06:03;15.17;;;12.90;;
17917;SDS011;9084;50.956;3.106;2022-11-14T07:08:30;18.77;;;14.13;;
17917;SDS011;9084;50.956;3.106;2022-11-14T07:11:00;17.23;;;12.77;;
17917;SDS011;9084;50.956;3.106;2022-11-14T07:13:33;20.20;;;15.07;;
17917;SDS011;9084;50.956;3.106;2022-11-14T07:16:00;18.20;;;15.00;;
17917;SDS011;9084;50.956;3.106;2022-11-14T07:18:30;17.90;;;14.20;;
17917;SDS011;9084;50.956;3.106;2022-11-14T07:20:57;18.07;;;13.50;;
17917;SDS011;9084;50.956;3.106;2022-11-14T07:23:28;18.00;;;13.70;;
17917;SDS011;9084;50.956;3.106;2022-11-14T07:25:59;20.13;;;13.53;;
17917;SDS011;9084;50.956;3.106;2022-11-14T07:28:48;16.97;;;11.70;;
17917;SDS011;9084;50.956;3.106;2022-11-14T07:31:15;16.30;;;11.73;;
17917;SDS011;9084;50.956;3.106;2022-11-14T07:33:42;15.43;;;11.63;;
17917;SDS011;9084;50.956;3.106;2022-11-14T07:36:09;14.77;;;11.83;;
17917;SDS011;9084;50.956;3.106;2022-11-14T07:38:38;15.17;;;10.87;;
17917;SDS011;9084;50.956;3.106;2022-11-14T07:41:09;14.43;;;11.57;;
17917;SDS011;9084;50.956;3.106;2022-11-14T07:43:36;15.17;;;12.27;;
17917;SDS011;9084;50.956;3.106;2022-11-14T07:46:07;14.50;;;12.07;;
17917;SDS011;9084;50.956;3.106;2022-11-14T07:48:36;17.43;;;12.43;;
17917;SDS011;9084;50.956;3.106;2022-11-14T07:51:04;15.83;;;13.50;;
17917;SDS011;9084;50.956;3.106;2022-11-14T07:53:32;17.77;;;13.43;;
17917;SDS011;9084;50.956;3.106;2022-11-14T07:56:01;19.23;;;13.27;;
17917;SDS011;9084;50.956;3.106;2022-11-14T07:58:29;20.87;;;14.77;;
17917;SDS011;9084;50.956;3.106;2022-11-14T08:00:59;21.67;;;14.43;;
17917;SDS011;9084;50.956;3.106;2022-11-14T08:03:26;19.20;;;14.73;;
17917;SDS011;9084;50.956;3.106;2022-11-14T08:06:06;21.63;;;14.53;;
17917;SDS011;9084;50.956;3.106;2022-11-14T08:08:36;23.73;;;15.33;;
17917;SDS011;9084;50.956;3.106;2022-11-14T08:11:02;21.33;;;17.43;;
17917;SDS011;9084;50.956;3.106;2022-11-14T08:13:29;25.63;;;17.07;;
17917;SDS011;9084;50.956;3.106;2022-11-14T08:15:57;26.17;;;15.50;;
17917;SDS011;9084;50.956;3.106;2022-11-14T08:18:26;27.53;;;16.80;;
17917;SDS011;9084;50.956;3.106;2022-11-14T08:20:54;33.10;;;17.90;;
17917;SDS011;9084;50.956;3.106;2022-11-14T08:23:21;28.23;;;17.37;;
17917;SDS011;9084;50.956;3.106;2022-11-14T08:25:47;32.13;;;17.30;;
17917;SDS011;9084;50.956;3.106;2022-11-14T08:28:16;39.50;;;18.70;;
17917;SDS011;9084;50.956;3.106;2022-11-14T08:30:42;28.37;;;16.00;;
17917;SDS011;9084;50.956;3.106;2022-11-14T08:33:10;26.53;;;14.60;;
17917;SDS011;9084;50.956;3.106;2022-11-14T08:35:36;20.50;;;14.53;;
17917;SDS011;9084;50.956;3.106;2022-11-14T08:38:02;16.00;;;11.77;;
17917;SDS011;9084;50.956;3.106;2022-11-14T08:40:28;16.20;;;12.00;;
17917;SDS011;9084;50.956;3.106;2022-11-14T08:43:00;14.13;;;10.03;;
17917;SDS011;9084;50.956;3.106;2022-11-14T08:45:27;12.77;;;11.13;;
17917;SDS011;9084;50.956;3.106;2022-11-14T08:47:55;10.53;;;9.47;;
17917;SDS011;9084;50.956;3.106;2022-11-14T08:50:23;11.57;;;10.13;;
17917;SDS011;9084;50.956;3.106;2022-11-14T08:52:51;9.87;;;8.50;;
17917;SDS011;9084;50.956;3.106;2022-11-14T08:55:18;9.70;;;8.70;;
17917;SDS011;9084;50.956;3.106;2022-11-14T08:57:47;14.17;;;8.87;;
17917;SDS011;9084;50.956;3.106;2022-11-14T09:00:15;10.17;;;9.10;;
17917;SDS011;9084;50.956;3.106;2022-11-14T09:02:44;10.20;;;9.10;;
17917;SDS011;9084;50.956;3.106;2022-11-14T09:05:10;9.47;;;8.57;;
17917;SDS011;9084;50.956;3.106;2022-11-14T09:07:38;10.93;;;9.07;;
17917;SDS011;9084;50.956;3.106;2022-11-14T09:10:04;10.67;;;9.13;;
17917;SDS011;9084;50.956;3.106;2022-11-14T09:12:33;11.40;;;8.70;;
17917;SDS011;9084;50.956;3.106;2022-11-14T09:15:01;10.57;;;9.37;;
17917;SDS011;9084;50.956;3.106;2022-11-14T09:17:29;10.97;;;9.80;;
17917;SDS011;9084;50.956;3.106;2022-11-14T09:19:55;11.17;;;10.00;;
17917;SDS011;9084;50.956;3.106;2022-11-14T09:22:21;11.17;;;10.07;;
17917;SDS011;9084;50.956;3.106;2022-11-14T09:24:47;13.47;;;9.73;;
17917;SDS011;9084;50.956;3.106;2022-11-14T09:27:16;13.40;;;10.70;;
17917;SDS011;9084;50.956;3.106;2022-11-14T09:29:42;10.47;;;8.73;;
17917;SDS011;9084;50.956;3.106;2022-11-14T09:32:10;10.73;;;9.40;;
17917;SDS011;9084;50.956;3.106;2022-11-14T09:34:36;16.60;;;10.07;;
17917;SDS011;9084;50.956;3.106;2022-11-14T09:37:06;13.03;;;9.60;;
17917;SDS011;9084;50.956;3.106;2022-11-14T09:39:35;10.90;;;9.77;;
17917;SDS011;9084;50.956;3.106;2022-11-14T09:50:10;9.90;;;8.40;;
17917;SDS011;9084;50.956;3.106;2022-11-14T09:52:40;10.43;;;8.73;;
17917;SDS011;9084;50.956;3.106;2022-11-14T09:55:27;10.40;;;9.40;;
17917;SDS011;9084;50.956;3.106;2022-11-14T09:57:54;9.03;;;8.13;;
17917;SDS011;9084;50.956;3.106;2022-11-14T10:00:22;12.13;;;8.53;;
17917;SDS011;9084;50.956;3.106;2022-11-14T10:24:45;12.00;;;9.67;;
17917;SDS011;9084;50.956;3.106;2022-11-14T10:27:41;11.40;;;10.27;;
17917;SDS011;9084;50.956;3.106;2022-11-14T10:30:10;11.43;;;9.80;;
17917;SDS011;9084;50.956;3.106;2022-11-14T10:33:02;11.50;;;10.17;;
17917;SDS011;9084;50.956;3.106;2022-11-14T10:35:54;9.90;;;8.90;;
17917;SDS011;9084;50.956;3.106;2022-11-14T10:38:50;12.50;;;11.40;;
17917;SDS011;9084;50.956;3.106;2022-11-14T10:41:26;10.77;;;9.77;;
17917;SDS011;9084;50.956;3.106;2022-11-14T10:43:54;11.07;;;9.97;;
17917;SDS011;9084;50.956;3.106;2022-11-14T10:46:44;11.23;;;9.80;;
17917;SDS011;9084;50.956;3.106;2022-11-14T10:49:12;10.40;;;9.40;;
17917;SDS011;9084;50.956;3.106;2022-11-14T10:51:51;11.03;;;10.03;;
17917;SDS011;9084;50.956;3.106;2022-11-14T10:54:24;10.20;;;8.87;;
17917;SDS011;9084;50.956;3.106;2022-11-14T10:56:56;11.33;;;10.13;;
17917;SDS011;9084;50.956;3.106;2022-11-14T10:59:22;11.33;;;10.17;;
17917;SDS011;9084;50.956;3.106;2022-11-14T11:01:53;11.47;;;10.20;;
17917;SDS011;9084;50.956;3.106;2022-11-14T11:06:57;13.00;;;11.80;;
17917;SDS011;9084;50.956;3.106;2022-11-14T11:10:03;12.80;;;11.60;;
17917;SDS011;9084;50.956;3.106;2022-11-14T11:12:49;12.27;;;11.07;;
17917;SDS011;9084;50.956;3.106;2022-11-14T11:15:39;12.13;;;11.03;;
17917;SDS011;9084;50.956;3.106;2022-11-14T11:21:08;12.40;;;11.30;;
17917;SDS011;9084;50.956;3.106;2022-11-14T11:23:52;12.67;;;11.37;;
17917;SDS011;9084;50.956;3.106;2022-11-14T11:26:25;12.63;;;11.30;;
17917;SDS011;9084;50.956;3.106;2022-11-14T11:34:11;11.63;;;10.47;;
17917;SDS011;9084;50.956;3.106;2022-11-14T11:36:45;12.17;;;10.97;;
17917;SDS011;9084;50.956;3.106;2022-11-14T11:39:20;11.37;;;10.27;;
17917;SDS011;9084;50.956;3.106;2022-11-14T11:41:50;12.17;;;10.87;;
17917;SDS011;9084;50.956;3.106;2022-11-14T11:44:19;12.70;;;11.40;;
17917;SDS011;9084;50.956;3.106;2022-11-14T11:46:56;13.43;;;12.07;;
17917;SDS011;9084;50.956;3.106;2022-11-14T11:51:55;13.07;;;11.43;;
17917;SDS011;9084;50.956;3.106;2022-11-14T11:57:44;13.60;;;12.17;;
17917;SDS011;9084;50.956;3.106;2022-11-14T12:02:45;13.53;;;12.13;;
17917;SDS011;9084;50.956;3.106;2022-11-14T12:06:03;13.60;;;12.40;;
17917;SDS011;9084;50.956;3.106;2022-11-14T12:08:05;13.43;;;12.10;;
17917;SDS011;9084;50.956;3.106;2022-11-14T12:10:39;13.77;;;12.47;;
17917;SDS011;9084;50.956;3.106;2022-11-14T12:16:08;11.53;;;10.27;;
17917;SDS011;9084;50.956;3.106;2022-11-14T12:32:22;13.17;;;11.87;;
17917;SDS011;9084;50.956;3.106;2022-11-14T12:34:55;12.90;;;11.50;;
17917;SDS011;9084;50.956;3.106;2022-11-14T12:37:30;13.20;;;11.73;;
17917;SDS011;9084;50.956;3.106;2022-11-14T12:40:01;12.77;;;11.47;;
17917;SDS011;9084;50.956;3.106;2022-11-14T12:42:32;15.30;;;13.70;;
17917;SDS011;9084;50.956;3.106;2022-11-14T12:44:59;17.53;;;15.60;;
17917;SDS011;9084;50.956;3.106;2022-11-14T12:47:27;17.17;;;14.97;;
17917;SDS011;9084;50.956;3.106;2022-11-14T12:57:48;16.80;;;15.10;;
17917;SDS011;9084;50.956;3.106;2022-11-14T13:00:15;17.83;;;14.77;;
17917;SDS011;9084;50.956;3.106;2022-11-14T13:10:55;16.33;;;14.03;;
17917;SDS011;9084;50.956;3.106;2022-11-14T13:13:24;15.47;;;13.87;;
17917;SDS011;9084;50.956;3.106;2022-11-14T13:16:20;18.30;;;14.57;;
17917;SDS011;9084;50.956;3.106;2022-11-14T13:22:22;15.70;;;13.73;;
17917;SDS011;9084;50.956;3.106;2022-11-14T13:29:57;15.47;;;13.20;;
17917;SDS011;9084;50.956;3.106;2022-11-14T13:49:46;17.00;;;14.50;;
17917;SDS011;9084;50.956;3.106;2022-11-14T13:52:18;17.63;;;15.17;;
17917;SDS011;9084;50.956;3.106;2022-11-14T13:54:48;17.03;;;13.63;;
17917;SDS011;9084;50.956;3.106;2022-11-14T14:00:07;13.73;;;12.10;;
17917;SDS011;9084;50.956;3.106;2022-11-14T14:13:42;13.23;;;11.67;;
17917;SDS011;9084;50.956;3.106;2022-11-14T14:30:14;15.60;;;14.00;;
17917;SDS011;9084;50.956;3.106;2022-11-14T14:33:29;15.87;;;13.10;;
17917;SDS011;9084;50.956;3.106;2022-11-14T14:35:34;16.10;;;14.37;;
17917;SDS011;9084;50.956;3.106;2022-11-14T14:38:04;18.63;;;14.67;;
17917;SDS011;9084;50.956;3.106;2022-11-14T14:40:39;16.10;;;14.40;;
17917;SDS011;9084;50.956;3.106;2022-11-14T14:43:06;17.57;;;15.77;;
17917;SDS011;9084;50.956;3.106;2022-11-14T14:45:44;17.60;;;14.40;;
17917;SDS011;9084;50.956;3.106;2022-11-14T14:48:17;15.20;;;13.60;;
17917;SDS011;9084;50.956;3.106;2022-11-14T14:50:56;17.20;;;14.10;;
17917;SDS011;9084;50.956;3.106;2022-11-14T14:53:24;17.00;;;13.63;;
17917;SDS011;9084;50.956;3.106;2022-11-14T14:55:55;16.03;;;12.93;;
17917;SDS011;9084;50.956;3.106;2022-11-14T15:03:35;16.93;;;12.33;;
17917;SDS011;9084;50.956;3.106;2022-11-14T15:06:26;16.40;;;14.60;;
17917;SDS011;9084;50.956;3.106;2022-11-14T15:09:21;20.00;;;14.73;;
17917;SDS011;9084;50.956;3.106;2022-11-14T15:11:50;16.77;;;13.77;;
17917;SDS011;9084;50.956;3.106;2022-11-14T15:14:19;16.70;;;14.03;;
17917;SDS011;9084;50.956;3.106;2022-11-14T15:16:51;17.53;;;14.53;;
17917;SDS011;9084;50.956;3.106;2022-11-14T15:19:20;18.50;;;15.87;;
17917;SDS011;9084;50.956;3.106;2022-11-14T15:24:34;17.33;;;13.47;;
17917;SDS011;9084;50.956;3.106;2022-11-14T15:27:10;20.77;;;15.50;;
17917;SDS011;9084;50.956;3.106;2022-11-14T15:29:51;16.00;;;13.03;;
17917;SDS011;9084;50.956;3.106;2022-11-14T15:32:23;18.07;;;13.90;;
17917;SDS011;9084;50.956;3.106;2022-11-14T15:35:05;19.47;;;15.60;;
17917;SDS011;9084;50.956;3.106;2022-11-14T15:37:33;19.53;;;15.47;;
17917;SDS011;9084;50.956;3.106;2022-11-14T15:42:56;16.37;;;13.63;;
17917;SDS011;9084;50.956;3.106;2022-11-14T15:45:41;17.93;;;15.13;;
17917;SDS011;9084;50.956;3.106;2022-11-14T15:48:12;20.00;;;14.93;;
17917;SDS011;9084;50.956;3.106;2022-11-14T15:50:48;18.00;;;15.27;;
17917;SDS011;9084;50.956;3.106;2022-11-14T15:53:24;17.93;;;14.40;;
17917;SDS011;9084;50.956;3.106;2022-11-14T15:55:54;17.40;;;14.23;;
17917;SDS011;9084;50.956;3.106;2022-11-14T15:58:20;16.20;;;13.67;;
17917;SDS011;9084;50.956;3.106;2022-11-14T16:00:47;18.30;;;15.47;;
17917;SDS011;9084;50.956;3.106;2022-11-14T16:03:20;18.70;;;15.33;;
17917;SDS011;9084;50.956;3.106;2022-11-14T16:05:46;17.00;;;14.03;;
17917;SDS011;9084;50.956;3.106;2022-11-14T16:08:12;16.53;;;13.67;;
17917;SDS011;9084;50.956;3.106;2022-11-14T16:10:38;19.63;;;14.03;;
17917;SDS011;9084;50.956;3.106;2022-11-14T16:13:06;15.87;;;12.50;;
17917;SDS011;9084;50.956;3.106;2022-11-14T16:15:34;14.27;;;12.80;;
17917;SDS011;9084;50.956;3.106;2022-11-14T16:18:04;15.73;;;14.13;;
17917;SDS011;9084;50.956;3.106;2022-11-14T16:20:30;17.10;;;14.53;;
17917;SDS011;9084;50.956;3.106;2022-11-14T16:23:03;16.70;;;14.20;;
17917;SDS011;9084;50.956;3.106;2022-11-14T16:25:29;15.60;;;13.93;;
17917;SDS011;9084;50.956;3.106;2022-11-14T16:27:56;15.13;;;13.53;;
17917;SDS011;9084;50.956;3.106;2022-11-14T16:30:22;16.73;;;14.33;;
17917;SDS011;9084;50.956;3.106;2022-11-14T16:32:50;16.13;;;14.53;;
17917;SDS011;9084;50.956;3.106;2022-11-14T16:37:46;15.37;;;13.80;;
17917;SDS011;9084;50.956;3.106;2022-11-14T16:40:17;14.63;;;12.53;;
17917;SDS011;9084;50.956;3.106;2022-11-14T16:42:48;15.07;;;12.43;;
17917;SDS011;9084;50.956;3.106;2022-11-14T16:45:14;13.63;;;12.03;;
17917;SDS011;9084;50.956;3.106;2022-11-14T16:47:44;14.20;;;12.10;;
17917;SDS011;9084;50.956;3.106;2022-11-14T16:50:10;16.63;;;13.50;;
17917;SDS011;9084;50.956;3.106;2022-11-14T16:52:38;13.87;;;12.20;;
17917;SDS011;9084;50.956;3.106;2022-11-14T16:55:06;15.07;;;12.80;;
17917;SDS011;9084;50.956;3.106;2022-11-14T16:57:33;15.33;;;12.33;;
17917;SDS011;9084;50.956;3.106;2022-11-14T17:00:08;14.67;;;12.40;;
17917;SDS011;9084;50.956;3.106;2022-11-14T17:02:39;17.87;;;12.43;;
17917;SDS011;9084;50.956;3.106;2022-11-14T17:05:05;15.50;;;13.33;;
17917;SDS011;9084;50.956;3.106;2022-11-14T17:07:33;15.03;;;11.97;;
17917;SDS011;9084;50.956;3.106;2022-11-14T17:10:02;20.10;;;12.57;;
17917;SDS011;9084;50.956;3.106;2022-11-14T17:12:29;13.47;;;11.00;;
17917;SDS011;9084;50.956;3.106;2022-11-14T17:14:56;14.83;;;13.10;;
17917;SDS011;9084;50.956;3.106;2022-11-14T17:17:22;14.53;;;11.60;;
17917;SDS011;9084;50.956;3.106;2022-11-14T17:19:48;17.13;;;12.80;;
17917;SDS011;9084;50.956;3.106;2022-11-14T17:22:14;14.63;;;12.37;;
17917;SDS011;9084;50.956;3.106;2022-11-14T17:24:41;14.30;;;12.20;;